Time;durP1;ratioP1;P1;durP2;ratioP2;P2;SDS_P1;SDS_P2;PMS_P1;PMS_P2;Temp;Humidity;BMP_temperature;BMP_pressure;BME280_temperature;BME280_humidity;BME280_pressure;Samples;Min_cycle;Max_cycle;Signal;HPM_P1;HPM_P2
2022/02/21 00:01:11;;;;;;;4.10;1.00;;;8.10;99.90;;;;;;5034841;28;20132;-88
2022/02/21 00:03:38;;;;;;;3.75;1.05;;;8.00;99.90;;;;;;5034893;28;20046;-94
2022/02/21 00:06:05;;;;;;;2.42;0.85;;;8.10;99.90;;;;;;5034929;28;20136;-88
2022/02/21 00:08:31;;;;;;;4.47;1.20;;;8.10;99.90;;;;;;5034941;28;20061;-86
2022/02/21 00:10:58;;;;;;;5.40;1.35;;;8.10;99.90;;;;;;5034472;28;20429;-89
2022/02/21 00:13:25;;;;;;;2.75;0.90;;;8.00;99.90;;;;;;5034827;28;20045;-87
2022/02/21 00:15:52;;;;;;;2.50;1.15;;;7.90;99.90;;;;;;5034561;28;20083;-90
2022/02/21 00:18:18;;;;;;;2.85;1.33;;;7.90;99.90;;;;;;5034687;28;20128;-87
2022/02/21 00:20:45;;;;;;;4.43;1.30;;;7.90;99.90;;;;;;5035032;28;20057;-88
2022/02/21 00:23:13;;;;;;;2.58;0.90;;;7.90;99.90;;;;;;5034451;28;20099;-89
2022/02/21 00:25:40;;;;;;;6.03;1.65;;;7.90;99.90;;;;;;5034331;28;20053;-88
2022/02/21 00:28:06;;;;;;;2.55;0.98;;;7.80;99.90;;;;;;5034166;28;20056;-88
2022/02/21 00:30:33;;;;;;;2.72;0.63;;;7.80;99.90;;;;;;5033304;28;20569;-91
2022/02/21 00:33:00;;;;;;;4.32;1.08;;;7.80;99.90;;;;;;5034551;28;20041;-90
2022/02/21 00:35:26;;;;;;;2.55;1.02;;;7.90;99.90;;;;;;5034544;28;20045;-88
2022/02/21 00:37:53;;;;;;;1.10;0.80;;;7.90;99.90;;;;;;5034359;28;20041;-90
2022/02/21 00:40:20;;;;;;;1.25;0.60;;;7.80;99.90;;;;;;5034748;28;20053;-87
2022/02/21 00:42:47;;;;;;;3.03;1.10;;;7.80;99.90;;;;;;5034165;28;20052;-89
2022/02/21 00:45:13;;;;;;;1.83;0.52;;;7.80;99.90;;;;;;5034391;28;20064;-89
2022/02/21 00:47:40;;;;;;;2.60;0.70;;;7.80;99.90;;;;;;5036044;28;20056;-89
2022/02/21 00:50:08;;;;;;;1.60;0.68;;;7.80;99.90;;;;;;5035218;28;20494;-90
2022/02/21 00:52:36;;;;;;;3.75;0.70;;;7.80;99.90;;;;;;5034359;28;20079;-89
2022/02/21 00:55:03;;;;;;;5.70;0.75;;;7.80;99.90;;;;;;5035134;28;20063;-86
2022/02/21 00:57:30;;;;;;;3.63;0.60;;;7.80;99.90;;;;;;5034555;28;20051;-89
2022/02/21 00:59:57;;;;;;;1.75;0.45;;;7.70;99.90;;;;;;5033656;28;20409;-90
2022/02/21 01:02:27;;;;;;;2.78;0.80;;;7.70;99.90;;;;;;5034742;28;20080;-91
2022/02/21 01:04:54;;;;;;;2.42;0.55;;;7.70;99.90;;;;;;5034189;28;20141;-88
2022/02/21 01:07:21;;;;;;;0.73;0.50;;;7.70;99.90;;;;;;5035753;28;20049;-89
2022/02/21 01:09:48;;;;;;;1.63;0.60;;;7.70;99.90;;;;;;5033993;28;20059;-86
2022/02/21 01:12:15;;;;;;;1.33;0.60;;;7.80;99.90;;;;;;5034271;28;20125;-87
2022/02/21 01:14:43;;;;;;;2.72;0.43;;;7.70;99.90;;;;;;5034299;28;20602;-91
2022/02/21 01:17:10;;;;;;;1.55;0.50;;;7.70;99.90;;;;;;5034129;28;20508;-87
2022/02/21 01:19:36;;;;;;;1.88;0.55;;;7.70;99.90;;;;;;5033256;28;20450;-88
2022/02/21 01:22:05;;;;;;;0.57;0.40;;;7.70;99.90;;;;;;5033621;28;20046;-90
2022/02/21 01:24:31;;;;;;;1.92;0.75;;;7.60;99.90;;;;;;5034673;28;20482;-86
2022/02/21 01:26:58;;;;;;;2.40;0.60;;;7.60;99.90;;;;;;5034811;28;20059;-87
2022/02/21 01:29:25;;;;;;;0.88;0.50;;;7.70;99.90;;;;;;5033946;28;20052;-90
2022/02/21 01:31:54;;;;;;;2.78;0.60;;;7.70;99.90;;;;;;5034365;28;20059;-88
2022/02/21 01:34:21;;;;;;;2.22;0.80;;;7.70;99.90;;;;;;5033106;28;20049;-86
2022/02/21 01:36:48;;;;;;;2.47;0.60;;;7.60;99.90;;;;;;5034965;28;20067;-86
2022/02/21 01:39:15;;;;;;;1.00;0.30;;;7.70;99.90;;;;;;5034308;28;20049;-86
2022/02/21 01:41:42;;;;;;;0.85;0.60;;;7.70;99.90;;;;;;5033397;28;20061;-88
2022/02/21 01:44:11;;;;;;;2.15;0.57;;;7.70;99.90;;;;;;5033575;28;20049;-87
2022/02/21 01:46:39;;;;;;;1.23;0.40;;;7.70;99.90;;;;;;5034223;28;20525;-86
2022/02/21 01:49:07;;;;;;;0.77;0.32;;;7.70;99.90;;;;;;5034285;28;20063;-91
2022/02/21 01:51:35;;;;;;;0.60;0.60;;;7.70;99.90;;;;;;5032883;28;20068;-88
2022/02/21 01:54:08;;;;;;;1.23;0.40;;;7.70;99.90;;;;;;5032803;28;20069;-86
2022/02/21 01:56:36;;;;;;;1.73;0.50;;;7.70;99.90;;;;;;5033434;28;20045;-89
2022/02/21 01:59:04;;;;;;;2.00;0.93;;;7.70;99.90;;;;;;5033774;28;20060;-87
2022/02/21 02:01:31;;;;;;;0.60;0.47;;;7.70;99.90;;;;;;5033922;28;20116;-88
2022/02/21 02:04:03;;;;;;;0.32;0.32;;;7.70;99.90;;;;;;5034127;28;20053;-88
2022/02/21 02:06:30;;;;;;;4.35;1.25;;;7.80;99.90;;;;;;5033093;28;20049;-88
2022/02/21 02:08:58;;;;;;;1.35;0.50;;;7.70;99.90;;;;;;5033597;28;20135;-88
2022/02/21 02:11:26;;;;;;;1.05;0.38;;;7.80;99.90;;;;;;5032972;28;20049;-88
2022/02/21 02:13:53;;;;;;;1.40;0.40;;;7.80;99.90;;;;;;5033671;28;20053;-88
2022/02/21 02:16:20;;;;;;;0.70;0.40;;;7.80;99.90;;;;;;5033674;28;20109;-89
2022/02/21 02:18:47;;;;;;;1.85;0.70;;;7.70;99.90;;;;;;5031895;28;20041;-89
2022/02/21 02:21:23;;;;;;;3.03;0.68;;;7.80;99.90;;;;;;5032837;28;20042;-88
2022/02/21 02:23:50;;;;;;;2.53;0.70;;;7.80;99.90;;;;;;5032501;28;20060;-87
2022/02/21 02:26:18;;;;;;;1.40;0.50;;;7.80;99.90;;;;;;5033812;28;20199;-91
2022/02/21 02:28:49;;;;;;;0.40;0.40;;;7.90;99.90;;;;;;5032678;28;20104;-88
2022/02/21 02:31:16;;;;;;;3.53;0.63;;;7.90;99.90;;;;;;5034041;28;20052;-91
2022/02/21 02:33:43;;;;;;;1.88;0.50;;;7.90;99.90;;;;;;5033071;28;20669;-89
2022/02/21 02:36:10;;;;;;;0.40;0.40;;;7.90;99.90;;;;;;5033881;28;20125;-87
2022/02/21 02:38:41;;;;;;;2.67;0.68;;;7.90;99.90;;;;;;5032275;28;20508;-87
2022/02/21 02:41:09;;;;;;;2.65;0.73;;;7.90;99.90;;;;;;5033261;28;20059;-87
2022/02/21 02:43:37;;;;;;;3.65;0.55;;;7.90;99.90;;;;;;5032257;28;20052;-89
2022/02/21 02:46:04;;;;;;;0.88;0.80;;;7.80;99.90;;;;;;5032356;28;20136;-87
2022/02/21 02:48:32;;;;;;;2.72;0.52;;;7.70;99.90;;;;;;5032359;28;20057;-88
2022/02/21 02:50:59;;;;;;;3.88;0.55;;;7.80;99.90;;;;;;5033393;28;20068;-88
2022/02/21 02:53:28;;;;;;;2.20;0.68;;;7.70;99.90;;;;;;5032631;28;20049;-88
2022/02/21 02:55:55;;;;;;;0.80;0.63;;;7.70;99.90;;;;;;5036072;28;20049;-87
2022/02/21 02:58:21;;;;;;;1.98;0.60;;;7.70;99.90;;;;;;5035766;28;20053;-88
2022/02/21 03:00:48;;;;;;;1.58;1.05;;;7.60;99.90;;;;;;5035866;28;20421;-87
2022/02/21 03:03:15;;;;;;;0.45;0.28;;;7.60;99.90;;;;;;5037617;28;20050;-92
2022/02/21 03:05:42;;;;;;;1.15;0.32;;;7.40;99.90;;;;;;5036974;28;20067;-90
2022/02/21 03:08:09;;;;;;;0.10;0.10;;;7.00;99.90;;;;;;5036155;28;20092;-89
2022/02/21 03:10:36;;;;;;;1.45;0.20;;;6.50;99.90;;;;;;5035681;28;20041;-90
2022/02/21 03:13:02;;;;;;;0.08;0.08;;;6.10;99.90;;;;;;5035928;28;20122;-89
2022/02/21 03:15:29;;;;;;;0.25;0.05;;;5.80;99.90;;;;;;5035946;28;20085;-92
2022/02/21 03:17:56;;;;;;;0.17;0.10;;;5.50;99.90;;;;;;5038083;28;20079;-89
2022/02/21 03:20:23;;;;;;;0.85;0.10;;;5.10;99.90;;;;;;5035761;28;20168;-89
2022/02/21 03:22:49;;;;;;;0.10;0.10;;;4.90;99.90;;;;;;5035643;28;20052;-90
2022/02/21 03:25:16;;;;;;;0.47;0.10;;;4.70;99.90;;;;;;5035502;28;20053;-88
2022/02/21 03:27:44;;;;;;;1.55;0.20;;;4.50;99.90;;;;;;5035662;28;20136;-89
2022/02/21 03:30:12;;;;;;;0.10;0.10;;;4.40;99.90;;;;;;5035586;28;20531;-91
2022/02/21 03:32:39;;;;;;;1.00;0.20;;;4.30;99.90;;;;;;5035582;28;20049;-89
2022/02/21 03:35:06;;;;;;;0.13;0.10;;;4.20;99.90;;;;;;5035097;28;20319;-89
2022/02/21 03:37:35;;;;;;;1.40;0.30;;;4.10;99.90;;;;;;5035708;28;20042;-89
2022/02/21 03:40:07;;;;;;;1.23;0.13;;;4.10;99.90;;;;;;5035364;28;20478;-88
2022/02/21 03:42:34;;;;;;;0.80;0.13;;;4.10;99.90;;;;;;5034987;28;20053;-89
2022/02/21 03:45:03;;;;;;;0.20;0.20;;;4.00;99.90;;;;;;5036306;28;20136;-88
2022/02/21 03:47:30;;;;;;;0.50;0.30;;;4.00;99.90;;;;;;5035027;28;20045;-88
2022/02/21 03:49:57;;;;;;;2.28;0.50;;;4.00;99.90;;;;;;5035145;28;20390;-89
2022/02/21 03:52:23;;;;;;;3.40;0.20;;;4.00;99.90;;;;;;5034877;28;20136;-89
2022/02/21 03:54:50;;;;;;;0.60;0.60;;;4.00;99.90;;;;;;5035817;28;20147;-88
2022/02/21 03:57:17;;;;;;;1.60;0.45;;;4.00;99.90;;;;;;5036260;28;20087;-88
2022/02/21 03:59:44;;;;;;;2.60;0.28;;;4.00;99.90;;;;;;5034726;28;20058;-89
2022/02/21 04:02:11;;;;;;;0.68;0.45;;;4.00;99.90;;;;;;5035675;28;20053;-88
2022/02/21 04:04:37;;;;;;;1.55;0.38;;;4.00;99.90;;;;;;5034125;28;20053;-88
2022/02/21 04:07:04;;;;;;;1.45;0.50;;;3.90;99.90;;;;;;5034188;28;20084;-89
2022/02/21 04:09:31;;;;;;;1.83;0.70;;;4.00;99.90;;;;;;5034783;28;20052;-88
2022/02/21 04:11:58;;;;;;;1.00;0.93;;;4.00;99.90;;;;;;5035711;28;20053;-88
2022/02/21 04:14:25;;;;;;;1.42;1.33;;;4.00;99.90;;;;;;5034575;28;20051;-88
2022/02/21 04:16:51;;;;;;;3.58;3.28;;;4.00;99.90;;;;;;5034271;28;20064;-88
2022/02/21 04:19:18;;;;;;;0.80;0.80;;;4.00;99.90;;;;;;5034095;28;20128;-88
2022/02/21 04:21:45;;;;;;;5.65;5.15;;;4.10;99.90;;;;;;5035276;28;20378;-88
2022/02/21 04:24:11;;;;;;;4.18;3.88;;;4.00;99.90;;;;;;5034265;28;20132;-88
2022/02/21 04:26:38;;;;;;;4.75;3.78;;;4.00;99.90;;;;;;5034628;28;20458;-89
2022/02/21 04:29:05;;;;;;;7.35;5.40;;;4.00;99.90;;;;;;5034496;28;20045;-88
2022/02/21 04:31:32;;;;;;;2.25;1.95;;;4.00;99.90;;;;;;5035716;28;20434;-88
2022/02/21 04:33:58;;;;;;;10.07;7.22;;;4.00;99.90;;;;;;5034226;28;20119;-88
2022/02/21 04:36:25;;;;;;;0.50;0.40;;;4.10;99.90;;;;;;5035418;28;20049;-89
2022/02/21 04:38:52;;;;;;;1.52;1.40;;;4.10;99.90;;;;;;5035516;28;20057;-89
2022/02/21 04:41:19;;;;;;;1.00;0.82;;;4.10;99.90;;;;;;5034313;28;20049;-89
2022/02/21 04:43:46;;;;;;;2.90;0.55;;;4.10;99.90;;;;;;5034106;28;20092;-87
2022/02/21 04:46:13;;;;;;;1.88;0.40;;;4.10;99.90;;;;;;5034175;28;20383;-88
2022/02/21 04:48:40;;;;;;;0.88;0.32;;;4.00;99.90;;;;;;5033920;28;20516;-89
2022/02/21 04:51:06;;;;;;;0.70;0.38;;;4.00;99.90;;;;;;5034048;28;20045;-88
2022/02/21 04:53:33;;;;;;;1.30;0.45;;;4.00;99.90;;;;;;5035351;28;20099;-88
2022/02/21 04:56:00;;;;;;;2.40;1.20;;;3.90;99.90;;;;;;5033627;28;20053;-88
2022/02/21 04:58:27;;;;;;;3.30;1.85;;;3.80;99.90;;;;;;5033674;28;20060;-88
2022/02/21 05:00:54;;;;;;;1.35;0.50;;;3.70;99.90;;;;;;5034708;28;20057;-90
2022/02/21 05:03:21;;;;;;;1.38;0.40;;;3.70;99.90;;;;;;5033826;28;20057;-88
2022/02/21 05:05:48;;;;;;;3.58;1.40;;;3.70;99.90;;;;;;5033759;28;20444;-88
2022/02/21 05:08:15;;;;;;;1.33;0.40;;;3.60;99.90;;;;;;5033938;28;20045;-88
2022/02/21 05:10:42;;;;;;;2.40;0.50;;;3.70;99.90;;;;;;5033347;28;20485;-89
2022/02/21 05:13:08;;;;;;;3.83;0.50;;;3.60;99.90;;;;;;5033469;28;20077;-88
2022/02/21 05:15:35;;;;;;;1.13;0.50;;;3.60;99.90;;;;;;5034433;28;20053;-89
2022/02/21 05:18:02;;;;;;;5.03;1.00;;;3.60;99.90;;;;;;5032562;28;20053;-88
2022/02/21 05:20:28;;;;;;;1.83;0.50;;;3.60;99.90;;;;;;5033526;28;20085;-87
2022/02/21 05:22:55;;;;;;;2.83;0.57;;;3.60;99.90;;;;;;5034562;28;20083;-89
2022/02/21 05:25:22;;;;;;;5.25;0.60;;;3.60;99.90;;;;;;5034613;28;20077;-90
2022/02/21 05:27:49;;;;;;;2.15;1.10;;;3.60;99.90;;;;;;5033589;28;20132;-89
2022/02/21 05:30:16;;;;;;;2.72;0.55;;;3.60;99.90;;;;;;5033108;28;20055;-88
2022/02/21 05:32:43;;;;;;;3.08;0.98;;;3.60;99.90;;;;;;5034465;28;20045;-88
2022/02/21 05:35:10;;;;;;;3.10;0.80;;;3.60;99.90;;;;;;5033252;28;20500;-89
2022/02/21 05:37:37;;;;;;;4.75;1.00;;;3.50;99.90;;;;;;5033502;28;20056;-89
2022/02/21 05:40:05;;;;;;;29.58;2.88;;;3.50;99.90;;;;;;5033035;28;20053;-89
2022/02/21 05:42:32;;;;;;;6.20;2.00;;;3.50;99.90;;;;;;5034187;28;20119;-89
2022/02/21 05:44:59;;;;;;;8.18;1.58;;;3.40;99.90;;;;;;5033195;28;20049;-89
2022/02/21 05:47:25;;;;;;;2.72;1.00;;;3.40;99.90;;;;;;5032022;28;20053;-90
2022/02/21 05:49:53;;;;;;;1.85;0.95;;;3.30;99.90;;;;;;5034154;28;20056;-89
2022/02/21 05:52:20;;;;;;;4.57;0.63;;;3.30;99.90;;;;;;5033004;28;20128;-90
2022/02/21 05:54:47;;;;;;;1.52;0.60;;;3.30;99.90;;;;;;5033907;28;20050;-89
2022/02/21 05:57:14;;;;;;;3.33;1.08;;;3.30;99.90;;;;;;5032888;28;20060;-89
2022/02/21 05:59:41;;;;;;;1.75;0.73;;;3.40;99.90;;;;;;5032726;28;20069;-89
2022/02/21 06:02:07;;;;;;;4.13;0.80;;;3.40;99.90;;;;;;5033049;28;20046;-89
2022/02/21 06:04:34;;;;;;;5.88;0.82;;;3.50;99.90;;;;;;5034149;28;20050;-90
2022/02/21 06:07:02;;;;;;;2.90;0.90;;;3.50;99.90;;;;;;5032997;28;20049;-89
2022/02/21 06:09:29;;;;;;;3.17;1.02;;;3.60;99.90;;;;;;5033836;28;20136;-92
2022/02/21 06:11:56;;;;;;;5.75;0.90;;;3.60;99.90;;;;;;5049137;28;20464;-90
2022/02/21 06:14:23;;;;;;;4.20;0.93;;;3.60;99.90;;;;;;5032826;28;20463;-90
2022/02/21 06:16:49;;;;;;;7.45;1.02;;;3.60;99.90;;;;;;5032655;28;20080;-90
2022/02/21 06:19:19;;;;;;;8.05;1.20;;;3.60;99.90;;;;;;5032346;28;20060;-90
2022/02/21 06:21:46;;;;;;;5.70;1.02;;;3.60;99.90;;;;;;5033712;28;20050;-90
2022/02/21 06:24:13;;;;;;;4.47;0.98;;;3.60;99.90;;;;;;5033568;28;20053;-88
2022/02/21 06:26:40;;;;;;;4.60;1.27;;;3.60;99.90;;;;;;5032726;28;20123;-89
2022/02/21 06:29:07;;;;;;;6.30;0.98;;;3.60;99.90;;;;;;5032839;28;20052;-89
2022/02/21 06:31:34;;;;;;;4.97;0.73;;;3.60;99.90;;;;;;5032700;28;20053;-90
2022/02/21 06:34:00;;;;;;;7.43;1.30;;;3.50;99.90;;;;;;5032741;28;20050;-91
2022/02/21 06:36:27;;;;;;;3.55;1.30;;;3.50;99.90;;;;;;5032242;28;20056;-88
2022/02/21 06:38:54;;;;;;;4.07;2.20;;;3.50;99.90;;;;;;5033184;28;20045;-91
2022/02/21 06:41:22;;;;;;;2.28;0.77;;;3.50;99.90;;;;;;5032441;28;20085;-90
2022/02/21 06:43:49;;;;;;;4.88;1.20;;;3.40;99.90;;;;;;5032256;28;20056;-90
2022/02/21 06:46:16;;;;;;;6.45;1.17;;;3.40;99.90;;;;;;5033900;28;20095;-90
2022/02/21 06:48:44;;;;;;;4.35;1.33;;;3.50;99.90;;;;;;5032381;28;20049;-90
2022/02/21 06:51:11;;;;;;;5.70;1.08;;;3.50;99.90;;;;;;5043847;28;20418;-89
2022/02/21 06:53:38;;;;;;;1.98;0.90;;;3.50;99.90;;;;;;5053256;28;20053;-89
2022/02/21 06:56:04;;;;;;;7.35;1.17;;;3.40;99.90;;;;;;5053359;28;20049;-90
2022/02/21 06:58:31;;;;;;;2.53;0.73;;;3.40;99.90;;;;;;5053295;28;20059;-89
2022/02/21 07:00:58;;;;;;;2.60;0.70;;;3.30;99.90;;;;;;5052682;28;20049;-89
2022/02/21 07:03:25;;;;;;;4.60;0.68;;;3.20;99.90;;;;;;5052930;28;20128;-89
2022/02/21 07:05:52;;;;;;;1.60;0.82;;;3.20;99.90;;;;;;5051753;28;20052;-90
2022/02/21 07:08:18;;;;;;;2.63;0.90;;;3.10;99.90;;;;;;5049544;28;20073;-89
2022/02/21 07:10:46;;;;;;;5.70;1.50;;;3.20;99.90;;;;;;5053180;28;20044;-90
2022/02/21 07:13:12;;;;;;;3.65;0.70;;;3.40;99.90;;;;;;5051865;28;20136;-89
2022/02/21 07:15:39;;;;;;;1.20;0.90;;;3.50;99.90;;;;;;5048898;28;20053;-92
2022/02/21 07:18:06;;;;;;;1.98;0.57;;;3.60;99.90;;;;;;5032563;28;20103;-89
2022/02/21 07:20:33;;;;;;;6.90;1.20;;;3.60;99.90;;;;;;5032091;28;20053;-89
2022/02/21 07:22:59;;;;;;;3.65;0.90;;;3.60;99.90;;;;;;5032172;28;20052;-87
2022/02/21 07:25:28;;;;;;;3.15;1.00;;;3.60;99.90;;;;;;5031587;28;20136;-90
2022/02/21 07:27:55;;;;;;;1.73;0.77;;;3.60;99.90;;;;;;5031986;28;20060;-90
2022/02/21 07:30:24;;;;;;;4.95;0.60;;;3.60;99.90;;;;;;5032350;28;20050;-90
2022/02/21 07:32:51;;;;;;;2.55;0.90;;;3.60;99.90;;;;;;5031715;28;20096;-91
2022/02/21 07:35:19;;;;;;;6.18;1.58;;;3.60;99.90;;;;;;5031642;28;20490;-89
2022/02/21 07:37:46;;;;;;;6.97;1.13;;;3.70;99.90;;;;;;5031745;28;20071;-89
2022/02/21 07:40:14;;;;;;;4.93;1.13;;;3.80;99.90;;;;;;5046896;28;20045;-90
2022/02/21 07:42:47;;;;;;;4.10;1.10;;;3.90;99.90;;;;;;5055765;28;20080;-89
2022/02/21 07:45:13;;;;;;;3.65;0.88;;;4.00;99.90;;;;;;5055376;28;20486;-90
2022/02/21 07:47:45;;;;;;;7.90;1.00;;;4.10;99.90;;;;;;5056271;28;20053;-89
2022/02/21 07:50:13;;;;;;;3.83;1.00;;;4.10;99.90;;;;;;5056099;28;20049;-89
2022/02/21 07:52:40;;;;;;;4.95;1.48;;;4.10;99.90;;;;;;5055384;28;20405;-90
2022/02/21 07:55:07;;;;;;;3.88;0.60;;;4.20;99.90;;;;;;5055189;28;20476;-90
2022/02/21 07:57:34;;;;;;;2.63;0.85;;;4.40;99.90;;;;;;5055361;28;20061;-90
2022/02/21 08:00:02;;;;;;;2.80;0.80;;;4.70;99.90;;;;;;5055655;28;20676;-90
2022/02/21 08:02:28;;;;;;;2.88;1.20;;;4.70;99.90;;;;;;5055825;28;20132;-89
2022/02/21 08:04:55;;;;;;;3.38;0.75;;;4.70;99.90;;;;;;5054614;28;20055;-89
2022/02/21 08:07:24;;;;;;;4.10;0.90;;;4.70;99.90;;;;;;5055162;28;20135;-90
2022/02/21 08:09:51;;;;;;;6.70;0.98;;;4.80;99.90;;;;;;5055066;28;20071;-90
2022/02/21 08:12:17;;;;;;;4.45;0.80;;;4.80;99.90;;;;;;5054949;28;20059;-91
2022/02/21 08:14:45;;;;;;;9.40;1.00;;;4.70;99.90;;;;;;5055984;28;20053;-90
2022/02/21 08:17:12;;;;;;;1.98;0.65;;;4.60;99.90;;;;;;5054949;28;20468;-89
2022/02/21 08:19:39;;;;;;;2.58;0.98;;;4.80;99.90;;;;;;5054175;28;20049;-90
2022/02/21 08:22:06;;;;;;;4.82;1.10;;;4.90;99.90;;;;;;5054521;28;20059;-90
2022/02/21 08:24:33;;;;;;;3.97;0.80;;;5.10;99.90;;;;;;5054663;28;20049;-90
2022/02/21 08:27:00;;;;;;;4.20;0.77;;;5.10;99.90;;;;;;5055447;28;20045;-90
2022/02/21 08:29:27;;;;;;;5.10;0.73;;;4.90;99.90;;;;;;5053465;28;20049;-89
2022/02/21 08:31:54;;;;;;;3.58;0.95;;;4.60;99.90;;;;;;5054399;28;20052;-90
2022/02/21 08:34:22;;;;;;;1.40;0.70;;;4.30;99.90;;;;;;5054939;28;20084;-90
2022/02/21 08:36:49;;;;;;;4.60;1.08;;;4.30;99.90;;;;;;5054283;28;20055;-90
2022/02/21 08:39:16;;;;;;;7.07;0.95;;;4.70;99.90;;;;;;5054089;28;20460;-93
2022/02/21 08:41:43;;;;;;;2.35;0.63;;;5.50;99.90;;;;;;5054004;28;20067;-90
2022/02/21 08:44:10;;;;;;;2.05;0.68;;;6.60;99.90;;;;;;5054145;28;20041;-90
2022/02/21 08:46:37;;;;;;;3.85;0.60;;;7.50;99.90;;;;;;5054317;28;20060;-90
2022/02/21 08:49:05;;;;;;;3.80;0.90;;;8.30;99.90;;;;;;5054536;28;20123;-90
2022/02/21 08:51:33;;;;;;;3.78;0.95;;;8.40;99.90;;;;;;5051874;28;20410;-89
2022/02/21 08:53:59;;;;;;;2.60;0.68;;;7.80;99.90;;;;;;5053832;28;20095;-91
2022/02/21 08:56:32;;;;;;;3.90;1.00;;;7.70;99.90;;;;;;5049534;28;20049;-90
2022/02/21 08:58:59;;;;;;;6.53;1.60;;;7.90;99.90;;;;;;5033928;28;20159;-90
2022/02/21 09:01:25;;;;;;;4.32;0.95;;;8.40;99.90;;;;;;5033931;28;20059;-90
2022/02/21 09:03:52;;;;;;;2.80;0.95;;;9.30;99.90;;;;;;5033703;28;20504;-92
2022/02/21 09:06:19;;;;;;;2.05;0.77;;;9.30;99.90;;;;;;5033623;28;20049;-92
2022/02/21 09:08:46;;;;;;;5.82;1.10;;;8.80;99.90;;;;;;5034281;28;20160;-89
2022/02/21 09:11:12;;;;;;;3.17;0.90;;;7.90;99.90;;;;;;5033870;28;20050;-89
2022/02/21 09:13:39;;;;;;;3.17;0.88;;;7.30;99.90;;;;;;5034007;28;20057;-89
2022/02/21 09:16:06;;;;;;;4.55;0.80;;;6.90;99.90;;;;;;5033701;28;20072;-88
2022/02/21 09:18:33;;;;;;;4.38;1.20;;;6.70;99.90;;;;;;5034117;28;20500;-91
2022/02/21 09:21:00;;;;;;;3.05;0.80;;;6.50;99.90;;;;;;5050712;28;20053;-90
2022/02/21 09:23:26;;;;;;;3.17;0.82;;;6.30;99.90;;;;;;5053282;28;20120;-92
2022/02/21 09:25:55;;;;;;;4.35;1.05;;;6.20;99.90;;;;;;5053098;28;20049;-94
2022/02/21 09:28:22;;;;;;;2.80;0.70;;;6.20;99.90;;;;;;5037863;28;20049;-91
2022/02/21 09:30:53;;;;;;;6.20;0.95;;;6.20;99.90;;;;;;5053837;28;20048;-90
2022/02/21 09:33:23;;;;;;;9.98;1.77;;;6.40;99.90;;;;;;5053325;28;20057;-90
2022/02/21 09:35:50;;;;;;;4.88;0.95;;;6.50;99.90;;;;;;5053435;28;20412;-94
2022/02/21 09:38:17;;;;;;;1.98;0.68;;;7.30;99.90;;;;;;5053254;28;20497;-91
2022/02/21 09:40:46;;;;;;;4.78;0.82;;;8.30;99.90;;;;;;5053701;28;20044;-87
2022/02/21 09:43:13;;;;;;;4.53;1.00;;;8.90;99.90;;;;;;5053795;28;20076;-89
2022/02/21 09:45:43;;;;;;;3.80;1.15;;;9.10;99.90;;;;;;5053646;28;20045;-91
2022/02/21 09:48:15;;;;;;;5.07;1.17;;;8.70;99.90;;;;;;5053535;28;20136;-90
2022/02/21 09:50:48;;;;;;;10.70;1.30;;;8.20;99.90;;;;;;5053164;28;20102;-92
2022/02/21 09:53:14;;;;;;;5.70;1.25;;;7.90;99.90;;;;;;5053198;28;20140;-90
2022/02/21 09:55:42;;;;;;;3.80;1.20;;;7.40;99.90;;;;;;5054595;28;20083;-89
2022/02/21 09:58:09;;;;;;;6.00;1.10;;;7.00;99.90;;;;;;5053972;28;20448;-89
2022/02/21 10:00:36;;;;;;;3.75;1.00;;;6.80;99.90;;;;;;5052939;28;20040;-93
2022/02/21 10:03:04;;;;;;;5.55;1.63;;;6.90;99.90;;;;;;5053545;28;20071;-90
2022/02/21 10:05:32;;;;;;;5.78;1.48;;;6.80;99.90;;;;;;5052811;28;20545;-89
2022/02/21 10:08:04;;;;;;;4.15;0.95;;;7.40;99.90;;;;;;5053085;28;20044;-90
2022/02/21 10:10:34;;;;;;;4.57;1.10;;;8.30;99.90;;;;;;5052919;28;20079;-90
2022/02/21 10:13:02;;;;;;;1.83;0.75;;;9.00;98.60;;;;;;5053050;28;20048;-92
2022/02/21 10:15:32;;;;;;;6.75;1.40;;;9.20;95.20;;;;;;5052510;28;20049;-92
2022/02/21 10:18:17;;;;;;;5.72;1.65;;;8.90;96.30;;;;;;5051938;28;20084;-93
2022/02/21 10:20:57;;;;;;;5.15;1.52;;;9.10;96.60;;;;;;5052701;28;20119;-91
2022/02/21 10:23:30;;;;;;;5.25;1.58;;;8.90;95.30;;;;;;5052989;28;20049;-93
2022/02/21 10:25:59;;;;;;;4.65;1.17;;;8.40;98.20;;;;;;5052538;28;20051;-92
2022/02/21 10:28:31;;;;;;;3.13;1.15;;;7.80;98.90;;;;;;5053412;28;20049;-89
2022/02/21 10:31:11;;;;;;;3.65;1.42;;;7.20;99.90;;;;;;5053869;28;20479;-90
2022/02/21 10:33:39;;;;;;;4.68;1.40;;;7.20;99.90;;;;;;5052523;28;20472;-91
2022/02/21 10:36:32;;;;;;;5.90;1.42;;;7.40;99.90;;;;;;5052651;28;20048;-90
2022/02/21 10:39:11;;;;;;;5.95;1.30;;;8.10;99.90;;;;;;5052609;28;20052;-90
2022/02/21 10:41:47;;;;;;;4.50;0.98;;;8.60;99.90;;;;;;5052799;28;20041;-92
2022/02/21 10:44:23;;;;;;;3.90;1.08;;;8.80;99.90;;;;;;5052272;28;20132;-92
2022/02/21 10:47:19;;;;;;;3.92;0.88;;;9.20;99.90;;;;;;5053919;28;20045;-91
2022/02/21 10:49:55;;;;;;;5.63;1.10;;;10.10;96.20;;;;;;5048397;28;20055;-92
2022/02/21 10:52:25;;;;;;;;;;;10.30;92.40;;;;;;5053546;28;20057;-92
2022/02/21 10:54:53;;;;;;;3.00;0.77;;;10.70;90.30;;;;;;5053919;28;19956;-92
2022/02/21 10:57:25;;;;;;;5.03;1.38;;;10.40;84.40;;;;;;5053306;28;20053;-92
2022/02/21 10:59:53;;;;;;;2.42;0.95;;;10.50;83.70;;;;;;5054733;28;20557;-94
2022/02/21 11:02:21;;;;;;;5.70;1.30;;;10.50;82.40;;;;;;5052775;28;20500;-90
2022/02/21 11:04:48;;;;;;;3.63;1.20;;;10.40;83.40;;;;;;5051134;28;20503;-92
2022/02/21 11:07:15;;;;;;;5.07;1.42;;;10.60;84.60;;;;;;5054740;28;20482;-92
2022/02/21 11:09:46;;;;;;;2.80;0.98;;;10.70;83.70;;;;;;5052602;28;20132;-93
2022/02/21 11:12:14;;;;;;;6.03;1.40;;;10.80;81.50;;;;;;5053398;28;20508;-94
2022/02/21 11:14:42;;;;;;;4.93;1.17;;;10.90;78.50;;;;;;5054042;28;20139;-91
2022/02/21 11:17:10;;;;;;;5.90;1.30;;;11.00;75.90;;;;;;5057280;28;20143;-92
2022/02/21 11:19:43;;;;;;;4.45;1.15;;;10.80;73.90;;;;;;5058581;28;20049;-91
2022/02/21 11:22:10;;;;;;;5.68;2.25;;;10.80;77.30;;;;;;5056594;28;20355;-92
2022/02/21 11:24:54;;;;;;;6.15;1.52;;;11.60;74.10;;;;;;5056636;28;20049;-93
2022/02/21 11:27:35;;;;;;;19.15;2.38;;;11.00;74.20;;;;;;5056746;28;20049;-91
2022/02/21 11:30:14;;;;;;;5.20;1.35;;;10.80;78.80;;;;;;5057587;28;20144;-92
2022/02/21 11:33:09;;;;;;;5.20;1.40;;;10.50;78.00;;;;;;5056477;28;20310;-91
2022/02/21 11:35:39;;;;;;;5.15;1.38;;;9.60;82.20;;;;;;5049935;28;20045;-90
2022/02/21 11:38:17;;;;;;;5.75;2.13;;;9.30;87.00;;;;;;5055225;28;20041;-89
2022/02/21 11:41:07;;;;;;;7.13;2.38;;;10.10;87.20;;;;;;5044119;28;20042;-90
2022/02/21 11:43:43;;;;;;;8.93;1.58;;;10.90;84.40;;;;;;5054822;28;20049;-92
2022/02/21 11:46:19;;;;;;;4.55;1.10;;;10.20;84.20;;;;;;5052452;28;20045;-91
2022/02/21 11:48:58;;;;;;;5.40;1.30;;;9.40;89.40;;;;;;5055623;28;20040;-93
2022/02/21 11:51:39;;;;;;;2.67;1.00;;;9.10;87.00;;;;;;5055130;28;20051;-93
2022/02/21 11:54:14;;;;;;;10.88;1.10;;;8.90;91.00;;;;;;5055897;28;20505;-89
2022/02/21 11:56:50;;;;;;;7.60;1.13;;;9.10;88.10;;;;;;5053931;28;20128;-91
2022/02/21 11:59:23;;;;;;;3.15;1.33;;;9.50;90.00;;;;;;5053792;28;20098;-91
2022/02/21 12:02:00;;;;;;;4.85;0.93;;;10.50;85.50;;;;;;5052812;28;20042;-91
2022/02/21 12:04:27;;;;;;;2.33;1.10;;;11.00;81.30;;;;;;5057099;28;20053;-92
2022/02/21 12:06:58;;;;;;;5.13;1.08;;;10.60;80.60;;;;;;5055125;28;20041;-92
2022/02/21 12:09:26;;;;;;;2.58;0.70;;;10.20;83.10;;;;;;5055886;28;20083;-92
2022/02/21 12:12:25;;;;;;;10.65;1.77;;;10.10;85.20;;;;;;5052314;28;20072;-91
2022/02/21 12:15:09;;;;;;;7.15;1.27;;;9.30;87.30;;;;;;5035004;28;20053;-91
2022/02/21 12:17:36;;;;;;;;;;;8.40;92.30;;;;;;5035984;28;20049;-92
2022/02/21 12:20:39;;;;;;;10.20;1.20;;;8.00;92.70;;;;;;5037169;28;20389;-91
2022/02/21 12:23:20;;;;;;;6.60;0.98;;;7.70;92.20;;;;;;5004435;28;20052;-92
2022/02/21 12:25:56;;;;;;;7.55;1.20;;;7.70;92.40;;;;;;5038403;28;20194;-90
2022/02/21 12:28:25;;;;;;;5.32;1.42;;;7.50;93.40;;;;;;5055352;28;20544;-91
2022/02/21 12:30:54;;;;;;;6.03;1.02;;;7.30;93.30;;;;;;5055287;28;20049;-92
2022/02/21 12:33:33;;;;;;;3.13;1.10;;;7.50;93.50;;;;;;5055409;28;20041;-91
2022/02/21 12:36:02;;;;;;;6.28;1.30;;;7.60;93.50;;;;;;5054765;28;20052;-93
2022/02/21 12:38:33;;;;;;;4.47;1.00;;;7.70;94.30;;;;;;5055055;28;20079;-90
2022/02/21 12:41:08;;;;;;;5.38;1.25;;;7.70;94.10;;;;;;5055798;28;20056;-92
2022/02/21 12:43:50;;;;;;;2.90;0.90;;;7.60;94.00;;;;;;5054668;28;20075;-94
2022/02/21 12:46:23;;;;;;;8.63;1.08;;;8.10;93.90;;;;;;5053230;28;20110;-92
2022/02/21 12:48:51;;;;;;;4.97;1.20;;;8.40;93.60;;;;;;5046948;28;20128;-93
2022/02/21 12:51:27;;;;;;;13.65;1.60;;;8.90;92.30;;;;;;5056219;28;20089;-90
2022/02/21 12:53:59;;;;;;;5.43;1.00;;;9.00;91.40;;;;;;5056366;28;20049;-90
2022/02/21 12:56:27;;;;;;;13.20;1.90;;;9.30;89.80;;;;;;5054886;28;20120;-92
2022/02/21 12:58:56;;;;;;;6.47;1.45;;;9.40;90.20;;;;;;5055117;28;20053;-92
2022/02/21 13:01:23;;;;;;;11.23;1.80;;;9.30;91.20;;;;;;5055132;28;20521;-92
2022/02/21 13:03:58;;;;;;;7.07;1.83;;;9.00;90.50;;;;;;5056156;28;20124;-93